sensor_id;sensor_type;location;lat;lon;timestamp;temperature;humidity
25753;DHT22;13600;50.816;4.416;2023-11-19T00:01:35;14.10;99.90
25753;DHT22;13600;50.816;4.416;2023-11-19T00:04:00;14.10;99.90
25753;DHT22;13600;50.816;4.416;2023-11-19T00:06:26;14.10;99.90
25753;DHT22;13600;50.816;4.416;2023-11-19T00:08:53;14.20;99.90
25753;DHT22;13600;50.816;4.416;2023-11-19T00:11:18;14.20;99.90
25753;DHT22;13600;50.816;4.416;2023-11-19T00:13:45;14.30;99.90
25753;DHT22;13600;50.816;4.416;2023-11-19T00:16:11;14.30;99.90
25753;DHT22;13600;50.816;4.416;2023-11-19T00:18:37;14.30;99.90
25753;DHT22;13600;50.816;4.416;2023-11-19T00:21:03;14.30;99.90
25753;DHT22;13600;50.816;4.416;2023-11-19T00:23:29;14.30;99.90
25753;DHT22;13600;50.816;4.416;2023-11-19T00:25:54;14.20;99.90
25753;DHT22;13600;50.816;4.416;2023-11-19T00:28:20;14.20;99.90
25753;DHT22;13600;50.816;4.416;2023-11-19T00:30:46;14.20;99.90
25753;DHT22;13600;50.816;4.416;2023-11-19T00:33:11;14.20;99.90
25753;DHT22;13600;50.816;4.416;2023-11-19T00:35:37;14.20;99.90
25753;DHT22;13600;50.816;4.416;2023-11-19T00:38:03;14.20;99.90
25753;DHT22;13600;50.816;4.416;2023-11-19T00:40:32;14.20;99.90
25753;DHT22;13600;50.816;4.416;2023-11-19T00:42:57;14.10;99.90
25753;DHT22;13600;50.816;4.416;2023-11-19T00:45:23;14.20;99.90
25753;DHT22;13600;50.816;4.416;2023-11-19T00:47:49;14.20;99.90
25753;DHT22;13600;50.816;4.416;2023-11-19T00:50:15;14.20;99.90
25753;DHT22;13600;50.816;4.416;2023-11-19T00:52:41;14.20;99.90
25753;DHT22;13600;50.816;4.416;2023-11-19T00:55:07;14.20;99.90
25753;DHT22;13600;50.816;4.416;2023-11-19T00:57:33;14.10;99.90
25753;DHT22;13600;50.816;4.416;2023-11-19T00:59:59;14.00;99.90
25753;DHT22;13600;50.816;4.416;2023-11-19T01:02:25;14.00;99.90
25753;DHT22;13600;50.816;4.416;2023-11-19T01:04:51;14.10;99.90
25753;DHT22;13600;50.816;4.416;2023-11-19T01:07:17;14.10;99.90
25753;DHT22;13600;50.816;4.416;2023-11-19T01:09:43;14.10;99.90
25753;DHT22;13600;50.816;4.416;2023-11-19T01:12:09;14.10;99.90
25753;DHT22;13600;50.816;4.416;2023-11-19T01:14:36;14.10;99.90
25753;DHT22;13600;50.816;4.416;2023-11-19T01:17:02;14.10;99.90
25753;DHT22;13600;50.816;4.416;2023-11-19T01:19:27;14.20;99.90
25753;DHT22;13600;50.816;4.416;2023-11-19T01:21:54;14.20;99.90
25753;DHT22;13600;50.816;4.416;2023-11-19T01:24:20;14.20;99.90
25753;DHT22;13600;50.816;4.416;2023-11-19T01:26:46;14.20;99.90
25753;DHT22;13600;50.816;4.416;2023-11-19T01:29:14;14.20;99.90
25753;DHT22;13600;50.816;4.416;2023-11-19T01:31:45;14.20;99.90
25753;DHT22;13600;50.816;4.416;2023-11-19T01:34:12;14.20;99.90
25753;DHT22;13600;50.816;4.416;2023-11-19T01:36:38;14.10;99.90
25753;DHT22;13600;50.816;4.416;2023-11-19T01:39:04;14.20;99.90
25753;DHT22;13600;50.816;4.416;2023-11-19T01:41:39;14.20;99.90
25753;DHT22;13600;50.816;4.416;2023-11-19T01:44:06;14.30;99.90
25753;DHT22;13600;50.816;4.416;2023-11-19T01:46:32;14.20;99.90
25753;DHT22;13600;50.816;4.416;2023-11-19T01:48:59;14.10;99.90
25753;DHT22;13600;50.816;4.416;2023-11-19T01:51:25;14.00;99.90
25753;DHT22;13600;50.816;4.416;2023-11-19T01:53:52;14.00;99.90
25753;DHT22;13600;50.816;4.416;2023-11-19T01:56:18;14.10;99.90
25753;DHT22;13600;50.816;4.416;2023-11-19T01:58:45;14.10;99.90
25753;DHT22;13600;50.816;4.416;2023-11-19T02:01:12;14.00;99.90
25753;DHT22;13600;50.816;4.416;2023-11-19T02:03:38;14.00;99.90
25753;DHT22;13600;50.816;4.416;2023-11-19T02:06:05;14.00;99.90
25753;DHT22;13600;50.816;4.416;2023-11-19T02:08:31;14.00;99.90
25753;DHT22;13600;50.816;4.416;2023-11-19T02:10:57;14.00;99.90
25753;DHT22;13600;50.816;4.416;2023-11-19T02:13:24;14.00;99.90
25753;DHT22;13600;50.816;4.416;2023-11-19T02:15:50;14.00;99.90
25753;DHT22;13600;50.816;4.416;2023-11-19T02:18:23;13.90;99.90
25753;DHT22;13600;50.816;4.416;2023-11-19T02:20:50;13.80;99.90
25753;DHT22;13600;50.816;4.416;2023-11-19T02:23:16;13.80;99.90
25753;DHT22;13600;50.816;4.416;2023-11-19T02:25:48;13.90;99.90
25753;DHT22;13600;50.816;4.416;2023-11-19T02:28:15;13.90;99.90
25753;DHT22;13600;50.816;4.416;2023-11-19T02:30:42;13.90;99.90
25753;DHT22;13600;50.816;4.416;2023-11-19T02:33:07;13.90;99.90
25753;DHT22;13600;50.816;4.416;2023-11-19T02:35:34;13.80;99.90
25753;DHT22;13600;50.816;4.416;2023-11-19T02:38:00;13.70;99.90
25753;DHT22;13600;50.816;4.416;2023-11-19T02:40:26;13.70;99.90
25753;DHT22;13600;50.816;4.416;2023-11-19T02:42:55;13.60;99.90
25753;DHT22;13600;50.816;4.416;2023-11-19T02:45:25;13.60;99.90
25753;DHT22;13600;50.816;4.416;2023-11-19T02:47:52;13.70;99.90
25753;DHT22;13600;50.816;4.416;2023-11-19T02:50:21;13.70;99.90
25753;DHT22;13600;50.816;4.416;2023-11-19T02:52:54;13.70;99.90
25753;DHT22;13600;50.816;4.416;2023-11-19T02:55:22;13.70;99.90
25753;DHT22;13600;50.816;4.416;2023-11-19T02:57:49;13.60;99.90
25753;DHT22;13600;50.816;4.416;2023-11-19T03:00:20;13.60;99.90
25753;DHT22;13600;50.816;4.416;2023-11-19T03:02:49;13.60;99.90
25753;DHT22;13600;50.816;4.416;2023-11-19T03:05:24;13.60;99.90
25753;DHT22;13600;50.816;4.416;2023-11-19T03:07:50;13.50;99.90
25753;DHT22;13600;50.816;4.416;2023-11-19T03:10:16;13.50;99.90
25753;DHT22;13600;50.816;4.416;2023-11-19T03:12:43;13.50;99.90
25753;DHT22;13600;50.816;4.416;2023-11-19T03:15:09;13.60;99.90
25753;DHT22;13600;50.816;4.416;2023-11-19T03:17:38;13.60;99.90
25753;DHT22;13600;50.816;4.416;2023-11-19T03:20:08;13.60;99.90
25753;DHT22;13600;50.816;4.416;2023-11-19T03:22:42;13.60;99.90
25753;DHT22;13600;50.816;4.416;2023-11-19T03:25:08;13.70;99.90
25753;DHT22;13600;50.816;4.416;2023-11-19T03:27:35;13.50;99.90
25753;DHT22;13600;50.816;4.416;2023-11-19T03:30:02;13.40;99.90
25753;DHT22;13600;50.816;4.416;2023-11-19T03:32:31;13.40;99.90
25753;DHT22;13600;50.816;4.416;2023-11-19T03:34:58;13.40;99.90
25753;DHT22;13600;50.816;4.416;2023-11-19T03:37:25;13.40;99.90
25753;DHT22;13600;50.816;4.416;2023-11-19T03:39:51;13.40;99.90
25753;DHT22;13600;50.816;4.416;2023-11-19T03:42:19;13.30;99.90
25753;DHT22;13600;50.816;4.416;2023-11-19T03:44:46;13.20;99.90
25753;DHT22;13600;50.816;4.416;2023-11-19T03:47:12;13.20;99.90
25753;DHT22;13600;50.816;4.416;2023-11-19T03:49:37;13.20;99.90
25753;DHT22;13600;50.816;4.416;2023-11-19T03:52:03;13.20;99.90
25753;DHT22;13600;50.816;4.416;2023-11-19T03:54:30;13.10;99.90
25753;DHT22;13600;50.816;4.416;2023-11-19T03:56:55;13.10;99.90
25753;DHT22;13600;50.816;4.416;2023-11-19T03:59:21;13.10;99.90
25753;DHT22;13600;50.816;4.416;2023-11-19T04:01:47;13.10;99.90
25753;DHT22;13600;50.816;4.416;2023-11-19T04:04:12;13.00;99.90
25753;DHT22;13600;50.816;4.416;2023-11-19T04:06:39;13.00;99.90
25753;DHT22;13600;50.816;4.416;2023-11-19T04:09:05;13.00;99.90
25753;DHT22;13600;50.816;4.416;2023-11-19T04:11:31;13.00;99.90
25753;DHT22;13600;50.816;4.416;2023-11-19T04:13:58;13.10;99.90
25753;DHT22;13600;50.816;4.416;2023-11-19T04:16:27;13.20;99.90
25753;DHT22;13600;50.816;4.416;2023-11-19T04:18:56;13.20;99.90
25753;DHT22;13600;50.816;4.416;2023-11-19T04:21:21;13.20;99.90
25753;DHT22;13600;50.816;4.416;2023-11-19T04:23:49;13.20;99.90
25753;DHT22;13600;50.816;4.416;2023-11-19T04:26:15;13.20;99.90
25753;DHT22;13600;50.816;4.416;2023-11-19T04:28:41;13.20;99.90
25753;DHT22;13600;50.816;4.416;2023-11-19T04:31:07;13.00;99.90
25753;DHT22;13600;50.816;4.416;2023-11-19T04:33:34;13.00;99.90
25753;DHT22;13600;50.816;4.416;2023-11-19T04:36:00;12.90;99.90
25753;DHT22;13600;50.816;4.416;2023-11-19T04:38:25;12.90;99.90
25753;DHT22;13600;50.816;4.416;2023-11-19T04:40:52;12.90;99.90
25753;DHT22;13600;50.816;4.416;2023-11-19T04:43:18;12.80;99.90
25753;DHT22;13600;50.816;4.416;2023-11-19T04:45:45;12.80;99.90
25753;DHT22;13600;50.816;4.416;2023-11-19T04:48:10;12.80;99.90
25753;DHT22;13600;50.816;4.416;2023-11-19T04:50:37;12.90;99.90
25753;DHT22;13600;50.816;4.416;2023-11-19T04:53:03;12.90;99.90
25753;DHT22;13600;50.816;4.416;2023-11-19T04:55:29;12.90;99.90
25753;DHT22;13600;50.816;4.416;2023-11-19T04:57:55;12.90;99.90
25753;DHT22;13600;50.816;4.416;2023-11-19T05:00:21;13.10;99.90
25753;DHT22;13600;50.816;4.416;2023-11-19T05:02:47;13.20;99.90
25753;DHT22;13600;50.816;4.416;2023-11-19T05:05:12;13.20;99.90
25753;DHT22;13600;50.816;4.416;2023-11-19T05:07:38;13.30;99.90
25753;DHT22;13600;50.816;4.416;2023-11-19T05:10:04;13.30;99.90
25753;DHT22;13600;50.816;4.416;2023-11-19T05:12:31;13.30;99.90
25753;DHT22;13600;50.816;4.416;2023-11-19T05:14:58;13.20;99.90
25753;DHT22;13600;50.816;4.416;2023-11-19T05:17:24;13.10;99.90
25753;DHT22;13600;50.816;4.416;2023-11-19T05:19:49;13.00;99.90
25753;DHT22;13600;50.816;4.416;2023-11-19T05:22:15;13.00;99.90
25753;DHT22;13600;50.816;4.416;2023-11-19T05:24:41;12.90;99.90
25753;DHT22;13600;50.816;4.416;2023-11-19T05:27:07;13.00;99.90
25753;DHT22;13600;50.816;4.416;2023-11-19T05:29:33;13.00;99.90
25753;DHT22;13600;50.816;4.416;2023-11-19T05:31:59;12.90;99.90
25753;DHT22;13600;50.816;4.416;2023-11-19T05:34:24;12.90;99.90
25753;DHT22;13600;50.816;4.416;2023-11-19T05:36:50;12.90;99.90
25753;DHT22;13600;50.816;4.416;2023-11-19T05:39:17;12.90;99.90
25753;DHT22;13600;50.816;4.416;2023-11-19T05:41:47;13.00;99.90
25753;DHT22;13600;50.816;4.416;2023-11-19T05:44:12;13.00;99.90
25753;DHT22;13600;50.816;4.416;2023-11-19T05:46:38;13.10;99.90
25753;DHT22;13600;50.816;4.416;2023-11-19T05:49:08;13.10;99.90
25753;DHT22;13600;50.816;4.416;2023-11-19T05:51:39;13.00;99.90
25753;DHT22;13600;50.816;4.416;2023-11-19T05:54:09;13.00;99.90
25753;DHT22;13600;50.816;4.416;2023-11-19T05:56:35;13.10;99.90
25753;DHT22;13600;50.816;4.416;2023-11-19T05:59:01;13.20;99.90
25753;DHT22;13600;50.816;4.416;2023-11-19T06:01:29;13.00;99.90
25753;DHT22;13600;50.816;4.416;2023-11-19T06:03:55;13.00;99.90
25753;DHT22;13600;50.816;4.416;2023-11-19T06:06:21;12.90;99.90
25753;DHT22;13600;50.816;4.416;2023-11-19T06:08:47;12.90;99.90
25753;DHT22;13600;50.816;4.416;2023-11-19T06:11:14;12.90;99.90
25753;DHT22;13600;50.816;4.416;2023-11-19T06:13:45;12.80;99.90
25753;DHT22;13600;50.816;4.416;2023-11-19T06:16:15;12.90;99.90
25753;DHT22;13600;50.816;4.416;2023-11-19T06:18:41;12.80;99.90
25753;DHT22;13600;50.816;4.416;2023-11-19T06:21:10;12.70;99.90
25753;DHT22;13600;50.816;4.416;2023-11-19T06:23:36;12.70;99.90
25753;DHT22;13600;50.816;4.416;2023-11-19T06:26:03;12.70;99.90
25753;DHT22;13600;50.816;4.416;2023-11-19T06:28:28;12.60;99.90
25753;DHT22;13600;50.816;4.416;2023-11-19T06:30:54;12.60;99.90
25753;DHT22;13600;50.816;4.416;2023-11-19T06:33:20;12.60;99.90
25753;DHT22;13600;50.816;4.416;2023-11-19T06:35:45;12.50;99.90
25753;DHT22;13600;50.816;4.416;2023-11-19T06:38:11;12.50;99.90
25753;DHT22;13600;50.816;4.416;2023-11-19T06:40:37;12.50;99.90
25753;DHT22;13600;50.816;4.416;2023-11-19T06:43:03;12.50;99.90
25753;DHT22;13600;50.816;4.416;2023-11-19T06:45:29;12.50;99.90
25753;DHT22;13600;50.816;4.416;2023-11-19T06:47:55;12.50;99.90
25753;DHT22;13600;50.816;4.416;2023-11-19T06:50:22;12.50;99.90
25753;DHT22;13600;50.816;4.416;2023-11-19T06:52:49;12.50;99.90
25753;DHT22;13600;50.816;4.416;2023-11-19T06:55:15;12.50;99.90
25753;DHT22;13600;50.816;4.416;2023-11-19T06:57:41;12.50;99.90
25753;DHT22;13600;50.816;4.416;2023-11-19T07:00:07;12.50;99.90
25753;DHT22;13600;50.816;4.416;2023-11-19T07:02:34;12.60;99.90
25753;DHT22;13600;50.816;4.416;2023-11-19T07:05:00;12.50;99.90
25753;DHT22;13600;50.816;4.416;2023-11-19T07:07:27;12.40;99.90
25753;DHT22;13600;50.816;4.416;2023-11-19T07:09:55;12.40;99.90
25753;DHT22;13600;50.816;4.416;2023-11-19T07:12:21;12.50;99.90
25753;DHT22;13600;50.816;4.416;2023-11-19T07:14:46;12.50;99.90
25753;DHT22;13600;50.816;4.416;2023-11-19T07:17:13;12.50;99.90
25753;DHT22;13600;50.816;4.416;2023-11-19T07:19:40;12.40;99.90
25753;DHT22;13600;50.816;4.416;2023-11-19T07:22:06;12.50;99.90
25753;DHT22;13600;50.816;4.416;2023-11-19T07:24:32;12.50;99.90
25753;DHT22;13600;50.816;4.416;2023-11-19T07:26:58;12.50;99.90
25753;DHT22;13600;50.816;4.416;2023-11-19T07:29:24;12.60;99.90
25753;DHT22;13600;50.816;4.416;2023-11-19T07:31:49;12.50;99.90
25753;DHT22;13600;50.816;4.416;2023-11-19T07:34:16;12.50;99.90
25753;DHT22;13600;50.816;4.416;2023-11-19T07:36:42;12.60;99.90
25753;DHT22;13600;50.816;4.416;2023-11-19T07:39:07;12.60;99.90
25753;DHT22;13600;50.816;4.416;2023-11-19T07:41:34;12.60;99.90
25753;DHT22;13600;50.816;4.416;2023-11-19T07:44:00;12.60;99.90
25753;DHT22;13600;50.816;4.416;2023-11-19T07:46:26;12.50;99.90
25753;DHT22;13600;50.816;4.416;2023-11-19T07:48:52;12.50;99.90
25753;DHT22;13600;50.816;4.416;2023-11-19T07:51:18;12.50;99.90
25753;DHT22;13600;50.816;4.416;2023-11-19T07:53:44;12.60;99.90
25753;DHT22;13600;50.816;4.416;2023-11-19T07:56:10;12.60;99.90
25753;DHT22;13600;50.816;4.416;2023-11-19T07:58:36;12.70;99.90
25753;DHT22;13600;50.816;4.416;2023-11-19T08:01:04;12.80;99.90
25753;DHT22;13600;50.816;4.416;2023-11-19T08:03:30;12.80;99.90
25753;DHT22;13600;50.816;4.416;2023-11-19T08:05:57;12.80;99.90
25753;DHT22;13600;50.816;4.416;2023-11-19T08:08:24;12.80;99.90
25753;DHT22;13600;50.816;4.416;2023-11-19T08:10:49;12.90;99.90
25753;DHT22;13600;50.816;4.416;2023-11-19T08:13:17;12.90;99.90
25753;DHT22;13600;50.816;4.416;2023-11-19T08:15:43;12.90;99.90
25753;DHT22;13600;50.816;4.416;2023-11-19T08:18:09;12.90;99.90
25753;DHT22;13600;50.816;4.416;2023-11-19T08:20:34;13.00;99.90
25753;DHT22;13600;50.816;4.416;2023-11-19T08:23:02;13.10;99.90
25753;DHT22;13600;50.816;4.416;2023-11-19T08:25:29;13.00;99.90
25753;DHT22;13600;50.816;4.416;2023-11-19T08:27:54;13.10;99.90
25753;DHT22;13600;50.816;4.416;2023-11-19T08:30:20;13.10;99.90
25753;DHT22;13600;50.816;4.416;2023-11-19T08:32:46;13.10;99.90
25753;DHT22;13600;50.816;4.416;2023-11-19T08:35:11;13.40;99.90
25753;DHT22;13600;50.816;4.416;2023-11-19T08:37:37;13.60;99.90
25753;DHT22;13600;50.816;4.416;2023-11-19T08:40:04;13.70;99.90
25753;DHT22;13600;50.816;4.416;2023-11-19T08:42:30;13.60;99.90
25753;DHT22;13600;50.816;4.416;2023-11-19T08:44:56;13.50;99.90
25753;DHT22;13600;50.816;4.416;2023-11-19T08:47:22;13.40;99.90
25753;DHT22;13600;50.816;4.416;2023-11-19T08:49:51;13.40;99.90
25753;DHT22;13600;50.816;4.416;2023-11-19T08:52:20;13.40;99.90
25753;DHT22;13600;50.816;4.416;2023-11-19T08:54:46;13.50;99.90
25753;DHT22;13600;50.816;4.416;2023-11-19T08:57:12;13.40;99.90
25753;DHT22;13600;50.816;4.416;2023-11-19T08:59:37;13.30;99.90
25753;DHT22;13600;50.816;4.416;2023-11-19T09:02:05;13.40;99.90
25753;DHT22;13600;50.816;4.416;2023-11-19T09:04:32;13.60;99.90
25753;DHT22;13600;50.816;4.416;2023-11-19T09:06:58;13.60;99.90
25753;DHT22;13600;50.816;4.416;2023-11-19T09:09:23;13.60;99.90
25753;DHT22;13600;50.816;4.416;2023-11-19T09:11:49;13.60;99.90
25753;DHT22;13600;50.816;4.416;2023-11-19T09:14:15;13.90;99.90
25753;DHT22;13600;50.816;4.416;2023-11-19T09:16:41;14.10;99.90
25753;DHT22;13600;50.816;4.416;2023-11-19T09:19:06;14.20;99.90
25753;DHT22;13600;50.816;4.416;2023-11-19T09:21:32;14.10;99.90
25753;DHT22;13600;50.816;4.416;2023-11-19T09:24:00;14.00;99.90
25753;DHT22;13600;50.816;4.416;2023-11-19T09:26:25;14.00;99.90
25753;DHT22;13600;50.816;4.416;2023-11-19T09:28:51;13.90;99.90
25753;DHT22;13600;50.816;4.416;2023-11-19T09:31:17;13.90;99.90
25753;DHT22;13600;50.816;4.416;2023-11-19T09:33:44;14.00;99.90
25753;DHT22;13600;50.816;4.416;2023-11-19T09:36:12;14.20;99.90
25753;DHT22;13600;50.816;4.416;2023-11-19T09:38:40;14.10;99.90
25753;DHT22;13600;50.816;4.416;2023-11-19T09:41:06;14.00;99.90
25753;DHT22;13600;50.816;4.416;2023-11-19T09:43:35;14.00;99.90
25753;DHT22;13600;50.816;4.416;2023-11-19T09:46:05;14.00;99.90
25753;DHT22;13600;50.816;4.416;2023-11-19T09:48:35;14.00;99.90
25753;DHT22;13600;50.816;4.416;2023-11-19T09:51:02;14.00;99.90
25753;DHT22;13600;50.816;4.416;2023-11-19T09:53:29;14.10;99.90
25753;DHT22;13600;50.816;4.416;2023-11-19T09:55:55;14.20;99.90
25753;DHT22;13600;50.816;4.416;2023-11-19T09:58:22;14.30;99.90
25753;DHT22;13600;50.816;4.416;2023-11-19T10:00:49;14.40;99.90
25753;DHT22;13600;50.816;4.416;2023-11-19T10:03:15;14.30;99.90
25753;DHT22;13600;50.816;4.416;2023-11-19T10:05:41;14.20;99.90
25753;DHT22;13600;50.816;4.416;2023-11-19T10:08:07;14.30;99.90
25753;DHT22;13600;50.816;4.416;2023-11-19T10:10:39;14.30;99.90
25753;DHT22;13600;50.816;4.416;2023-11-19T10:13:06;14.30;99.90
25753;DHT22;13600;50.816;4.416;2023-11-19T10:15:37;14.40;99.90
25753;DHT22;13600;50.816;4.416;2023-11-19T10:18:04;14.60;99.90
25753;DHT22;13600;50.816;4.416;2023-11-19T10:20:37;14.90;99.90
25753;DHT22;13600;50.816;4.416;2023-11-19T10:23:03;15.00;99.90
25753;DHT22;13600;50.816;4.416;2023-11-19T10:25:29;15.10;99.90
25753;DHT22;13600;50.816;4.416;2023-11-19T10:27:56;15.20;99.90
25753;DHT22;13600;50.816;4.416;2023-11-19T10:30:25;15.10;99.90
25753;DHT22;13600;50.816;4.416;2023-11-19T10:33:14;15.10;99.90
25753;DHT22;13600;50.816;4.416;2023-11-19T10:35:58;15.10;99.90
25753;DHT22;13600;50.816;4.416;2023-11-19T10:38:26;15.40;99.90
25753;DHT22;13600;50.816;4.416;2023-11-19T10:40:53;15.60;99.90
25753;DHT22;13600;50.816;4.416;2023-11-19T10:43:23;15.70;99.90
25753;DHT22;13600;50.816;4.416;2023-11-19T10:45:49;15.70;99.90
25753;DHT22;13600;50.816;4.416;2023-11-19T10:48:15;15.50;99.90
25753;DHT22;13600;50.816;4.416;2023-11-19T10:50:42;15.40;99.90
25753;DHT22;13600;50.816;4.416;2023-11-19T10:53:12;15.40;99.90
25753;DHT22;13600;50.816;4.416;2023-11-19T10:55:47;15.40;99.90
25753;DHT22;13600;50.816;4.416;2023-11-19T10:58:19;15.50;99.90
25753;DHT22;13600;50.816;4.416;2023-11-19T11:00:50;15.30;99.90
25753;DHT22;13600;50.816;4.416;2023-11-19T11:03:24;15.10;99.90
25753;DHT22;13600;50.816;4.416;2023-11-19T11:05:51;15.00;99.90
25753;DHT22;13600;50.816;4.416;2023-11-19T11:08:18;15.00;99.90
25753;DHT22;13600;50.816;4.416;2023-11-19T11:10:56;14.90;99.90
25753;DHT22;13600;50.816;4.416;2023-11-19T11:13:26;14.90;99.90
25753;DHT22;13600;50.816;4.416;2023-11-19T11:15:56;14.70;99.90
25753;DHT22;13600;50.816;4.416;2023-11-19T11:18:26;14.60;99.90
25753;DHT22;13600;50.816;4.416;2023-11-19T11:21:13;14.60;99.90
25753;DHT22;13600;50.816;4.416;2023-11-19T11:26:46;14.90;99.90
25753;DHT22;13600;50.816;4.416;2023-11-19T11:32:33;14.60;99.90
25753;DHT22;13600;50.816;4.416;2023-11-19T11:37:49;15.30;99.90
25753;DHT22;13600;50.816;4.416;2023-11-19T11:40:16;15.60;99.90
25753;DHT22;13600;50.816;4.416;2023-11-19T11:42:44;15.70;99.90
25753;DHT22;13600;50.816;4.416;2023-11-19T11:45:11;15.60;99.90
25753;DHT22;13600;50.816;4.416;2023-11-19T11:50:26;15.30;99.90
25753;DHT22;13600;50.816;4.416;2023-11-19T11:55:52;15.30;99.90
25753;DHT22;13600;50.816;4.416;2023-11-19T11:58:28;15.30;99.90
25753;DHT22;13600;50.816;4.416;2023-11-19T12:00:57;15.30;99.90
25753;DHT22;13600;50.816;4.416;2023-11-19T12:03:23;15.30;99.90
25753;DHT22;13600;50.816;4.416;2023-11-19T12:05:50;15.30;99.90
25753;DHT22;13600;50.816;4.416;2023-11-19T12:08:19;15.30;99.90
25753;DHT22;13600;50.816;4.416;2023-11-19T12:10:47;15.20;99.90
25753;DHT22;13600;50.816;4.416;2023-11-19T12:13:14;15.30;99.90
25753;DHT22;13600;50.816;4.416;2023-11-19T12:18:29;15.30;99.90
25753;DHT22;13600;50.816;4.416;2023-11-19T12:20:55;15.30;99.90
25753;DHT22;13600;50.816;4.416;2023-11-19T12:23:22;15.00;99.90
25753;DHT22;13600;50.816;4.416;2023-11-19T12:25:49;14.90;99.90
25753;DHT22;13600;50.816;4.416;2023-11-19T12:28:15;15.00;99.90
25753;DHT22;13600;50.816;4.416;2023-11-19T12:30:45;14.90;99.90
25753;DHT22;13600;50.816;4.416;2023-11-19T12:33:13;14.80;99.90
25753;DHT22;13600;50.816;4.416;2023-11-19T12:35:43;14.70;99.90
25753;DHT22;13600;50.816;4.416;2023-11-19T12:38:24;14.70;99.90
25753;DHT22;13600;50.816;4.416;2023-11-19T12:41:06;14.60;99.90
25753;DHT22;13600;50.816;4.416;2023-11-19T12:43:32;14.40;99.90
25753;DHT22;13600;50.816;4.416;2023-11-19T12:46:00;14.50;99.90
25753;DHT22;13600;50.816;4.416;2023-11-19T12:48:26;14.70;99.90
25753;DHT22;13600;50.816;4.416;2023-11-19T12:53:20;14.70;99.90
25753;DHT22;13600;50.816;4.416;2023-11-19T12:55:48;14.70;99.90
25753;DHT22;13600;50.816;4.416;2023-11-19T12:58:35;14.70;99.90
25753;DHT22;13600;50.816;4.416;2023-11-19T13:01:02;14.70;99.90
25753;DHT22;13600;50.816;4.416;2023-11-19T13:03:32;14.50;99.90
25753;DHT22;13600;50.816;4.416;2023-11-19T13:06:08;14.50;99.90
25753;DHT22;13600;50.816;4.416;2023-11-19T13:08:44;14.40;99.90
25753;DHT22;13600;50.816;4.416;2023-11-19T13:11:10;14.50;99.90
25753;DHT22;13600;50.816;4.416;2023-11-19T13:14:00;14.30;99.90
25753;DHT22;13600;50.816;4.416;2023-11-19T13:16:27;14.30;99.90
25753;DHT22;13600;50.816;4.416;2023-11-19T13:18:55;14.40;99.90
25753;DHT22;13600;50.816;4.416;2023-11-19T13:21:20;14.40;99.90
25753;DHT22;13600;50.816;4.416;2023-11-19T13:23:46;14.40;99.90
25753;DHT22;13600;50.816;4.416;2023-11-19T13:26:12;14.30;99.90
25753;DHT22;13600;50.816;4.416;2023-11-19T13:28:38;14.20;99.90
25753;DHT22;13600;50.816;4.416;2023-11-19T13:31:04;14.30;99.90
25753;DHT22;13600;50.816;4.416;2023-11-19T13:33:31;14.10;99.90
25753;DHT22;13600;50.816;4.416;2023-11-19T13:35:57;14.10;99.90
25753;DHT22;13600;50.816;4.416;2023-11-19T13:38:23;14.20;99.90
25753;DHT22;13600;50.816;4.416;2023-11-19T13:40:49;14.20;99.90
25753;DHT22;13600;50.816;4.416;2023-11-19T13:43:16;14.30;99.90
25753;DHT22;13600;50.816;4.416;2023-11-19T13:45:42;14.30;99.90
25753;DHT22;13600;50.816;4.416;2023-11-19T13:48:07;14.30;99.90
25753;DHT22;13600;50.816;4.416;2023-11-19T13:50:34;14.40;99.90
25753;DHT22;13600;50.816;4.416;2023-11-19T13:53:01;14.40;99.90
25753;DHT22;13600;50.816;4.416;2023-11-19T13:55:27;14.50;99.90
25753;DHT22;13600;50.816;4.416;2023-11-19T13:57:53;14.50;99.90
25753;DHT22;13600;50.816;4.416;2023-11-19T14:00:19;14.50;99.90
25753;DHT22;13600;50.816;4.416;2023-11-19T14:02:46;14.50;99.90
25753;DHT22;13600;50.816;4.416;2023-11-19T14:05:13;14.60;99.90
25753;DHT22;13600;50.816;4.416;2023-11-19T14:07:42;14.50;99.90
25753;DHT22;13600;50.816;4.416;2023-11-19T14:10:08;14.50;99.90
25753;DHT22;13600;50.816;4.416;2023-11-19T14:12:35;14.40;99.90
25753;DHT22;13600;50.816;4.416;2023-11-19T14:15:07;14.30;99.90
25753;DHT22;13600;50.816;4.416;2023-11-19T14:17:35;14.30;99.90
25753;DHT22;13600;50.816;4.416;2023-11-19T14:20:02;14.40;99.90
25753;DHT22;13600;50.816;4.416;2023-11-19T14:22:29;14.20;99.90
25753;DHT22;13600;50.816;4.416;2023-11-19T14:24:55;14.10;99.90
25753;DHT22;13600;50.816;4.416;2023-11-19T14:27:21;14.00;99.90
25753;DHT22;13600;50.816;4.416;2023-11-19T14:29:48;14.00;99.90
25753;DHT22;13600;50.816;4.416;2023-11-19T14:32:14;14.00;99.90
25753;DHT22;13600;50.816;4.416;2023-11-19T14:34:41;14.00;99.90
25753;DHT22;13600;50.816;4.416;2023-11-19T14:37:07;13.70;99.90
25753;DHT22;13600;50.816;4.416;2023-11-19T14:39:33;13.60;99.90
25753;DHT22;13600;50.816;4.416;2023-11-19T14:42:00;13.70;99.90
25753;DHT22;13600;50.816;4.416;2023-11-19T14:44:30;13.60;99.90
25753;DHT22;13600;50.816;4.416;2023-11-19T14:46:55;13.70;99.90
25753;DHT22;13600;50.816;4.416;2023-11-19T14:49:22;13.80;99.90
25753;DHT22;13600;50.816;4.416;2023-11-19T14:51:49;13.70;99.90
25753;DHT22;13600;50.816;4.416;2023-11-19T14:54:15;13.70;99.90
25753;DHT22;13600;50.816;4.416;2023-11-19T14:56:42;13.70;99.90
25753;DHT22;13600;50.816;4.416;2023-11-19T14:59:07;13.70;99.90
25753;DHT22;13600;50.816;4.416;2023-11-19T15:01:33;13.70;99.90
25753;DHT22;13600;50.816;4.416;2023-11-19T15:03:59;13.80;99.90
25753;DHT22;13600;50.816;4.416;2023-11-19T15:06:25;13.70;99.90
25753;DHT22;13600;50.816;4.416;2023-11-19T15:08:56;13.60;99.90
25753;DHT22;13600;50.816;4.416;2023-11-19T15:11:22;13.60;99.90
25753;DHT22;13600;50.816;4.416;2023-11-19T15:13:48;13.50;99.90
25753;DHT22;13600;50.816;4.416;2023-11-19T15:16:14;13.60;99.90
25753;DHT22;13600;50.816;4.416;2023-11-19T15:18:43;13.70;99.90
25753;DHT22;13600;50.816;4.416;2023-11-19T15:21:08;13.70;99.90
25753;DHT22;13600;50.816;4.416;2023-11-19T15:23:34;13.70;99.90
25753;DHT22;13600;50.816;4.416;2023-11-19T15:26:00;13.70;99.90
25753;DHT22;13600;50.816;4.416;2023-11-19T15:28:26;13.70;99.90
25753;DHT22;13600;50.816;4.416;2023-11-19T15:30:53;13.70;99.90
25753;DHT22;13600;50.816;4.416;2023-11-19T15:33:19;13.80;99.90
25753;DHT22;13600;50.816;4.416;2023-11-19T15:35:45;13.80;99.90
25753;DHT22;13600;50.816;4.416;2023-11-19T15:38:12;13.80;99.90
25753;DHT22;13600;50.816;4.416;2023-11-19T15:40:37;13.90;99.90
25753;DHT22;13600;50.816;4.416;2023-11-19T15:43:04;13.90;99.90
25753;DHT22;13600;50.816;4.416;2023-11-19T15:45:32;13.90;99.90
25753;DHT22;13600;50.816;4.416;2023-11-19T15:48:03;13.90;99.90
25753;DHT22;13600;50.816;4.416;2023-11-19T15:50:29;13.90;99.90